sensor_id;sensor_type;location;lat;lon;timestamp;P1;durP1;ratioP1;P2;durP2;ratioP2
14799;SDS011;7491;57.750;11.970;2023-11-19T00:00:12;2.67;;;2.15;;
14799;SDS011;7491;57.750;11.970;2023-11-19T00:02:40;2.40;;;2.00;;
14799;SDS011;7491;57.750;11.970;2023-11-19T00:05:07;2.92;;;2.17;;
14799;SDS011;7491;57.750;11.970;2023-11-19T00:07:36;2.30;;;1.95;;
14799;SDS011;7491;57.750;11.970;2023-11-19T00:10:08;2.92;;;2.13;;
14799;SDS011;7491;57.750;11.970;2023-11-19T00:12:36;3.67;;;1.73;;
14799;SDS011;7491;57.750;11.970;2023-11-19T00:15:05;2.13;;;1.70;;
14799;SDS011;7491;57.750;11.970;2023-11-19T00:17:36;3.10;;;2.22;;
14799;SDS011;7491;57.750;11.970;2023-11-19T00:20:04;3.00;;;2.00;;
14799;SDS011;7491;57.750;11.970;2023-11-19T00:22:32;2.22;;;2.00;;
14799;SDS011;7491;57.750;11.970;2023-11-19T00:24:59;3.28;;;1.77;;
14799;SDS011;7491;57.750;11.970;2023-11-19T00:27:28;3.75;;;1.90;;
14799;SDS011;7491;57.750;11.970;2023-11-19T00:29:55;1.80;;;1.65;;
14799;SDS011;7491;57.750;11.970;2023-11-19T00:32:22;2.08;;;1.83;;
14799;SDS011;7491;57.750;11.970;2023-11-19T00:34:49;1.95;;;1.75;;
14799;SDS011;7491;57.750;11.970;2023-11-19T00:37:15;2.58;;;2.00;;
14799;SDS011;7491;57.750;11.970;2023-11-19T00:39:42;6.60;;;2.08;;
14799;SDS011;7491;57.750;11.970;2023-11-19T00:42:11;3.47;;;1.70;;
14799;SDS011;7491;57.750;11.970;2023-11-19T00:44:39;2.30;;;1.65;;
14799;SDS011;7491;57.750;11.970;2023-11-19T00:47:06;2.83;;;1.80;;
14799;SDS011;7491;57.750;11.970;2023-11-19T00:49:32;2.60;;;2.20;;
14799;SDS011;7491;57.750;11.970;2023-11-19T00:52:00;2.85;;;2.25;;
14799;SDS011;7491;57.750;11.970;2023-11-19T00:54:27;4.93;;;2.40;;
14799;SDS011;7491;57.750;11.970;2023-11-19T00:56:54;3.90;;;2.13;;
14799;SDS011;7491;57.750;11.970;2023-11-19T00:59:21;1.67;;;1.58;;
14799;SDS011;7491;57.750;11.970;2023-11-19T01:01:50;3.58;;;1.80;;
14799;SDS011;7491;57.750;11.970;2023-11-19T01:04:17;4.32;;;2.08;;
14799;SDS011;7491;57.750;11.970;2023-11-19T01:06:44;3.42;;;1.88;;
14799;SDS011;7491;57.750;11.970;2023-11-19T01:09:11;3.47;;;1.50;;
14799;SDS011;7491;57.750;11.970;2023-11-19T01:11:37;2.53;;;1.80;;
14799;SDS011;7491;57.750;11.970;2023-11-19T01:14:04;1.98;;;1.70;;
14799;SDS011;7491;57.750;11.970;2023-11-19T01:16:31;2.80;;;2.13;;
14799;SDS011;7491;57.750;11.970;2023-11-19T01:18:59;3.90;;;1.80;;
14799;SDS011;7491;57.750;11.970;2023-11-19T01:21:29;1.90;;;1.70;;
14799;SDS011;7491;57.750;11.970;2023-11-19T01:23:56;1.83;;;1.70;;
14799;SDS011;7491;57.750;11.970;2023-11-19T01:26:23;2.22;;;1.67;;
14799;SDS011;7491;57.750;11.970;2023-11-19T01:28:50;2.73;;;1.80;;
14799;SDS011;7491;57.750;11.970;2023-11-19T01:31:17;1.70;;;1.60;;
14799;SDS011;7491;57.750;11.970;2023-11-19T01:33:45;2.28;;;1.77;;
14799;SDS011;7491;57.750;11.970;2023-11-19T01:36:14;2.28;;;1.90;;
14799;SDS011;7491;57.750;11.970;2023-11-19T01:38:41;1.92;;;1.70;;
14799;SDS011;7491;57.750;11.970;2023-11-19T01:41:08;2.28;;;1.90;;
14799;SDS011;7491;57.750;11.970;2023-11-19T01:43:35;3.28;;;1.70;;
14799;SDS011;7491;57.750;11.970;2023-11-19T01:46:04;2.60;;;1.73;;
14799;SDS011;7491;57.750;11.970;2023-11-19T01:48:32;1.92;;;1.73;;
14799;SDS011;7491;57.750;11.970;2023-11-19T01:51:01;1.67;;;1.38;;
14799;SDS011;7491;57.750;11.970;2023-11-19T01:53:31;1.63;;;1.50;;
14799;SDS011;7491;57.750;11.970;2023-11-19T01:56:00;2.13;;;1.80;;
14799;SDS011;7491;57.750;11.970;2023-11-19T01:58:27;2.25;;;1.92;;
14799;SDS011;7491;57.750;11.970;2023-11-19T02:00:55;2.55;;;2.03;;
14799;SDS011;7491;57.750;11.970;2023-11-19T02:03:22;2.05;;;1.58;;
14799;SDS011;7491;57.750;11.970;2023-11-19T02:05:51;1.57;;;1.47;;
14799;SDS011;7491;57.750;11.970;2023-11-19T02:08:18;2.65;;;1.83;;
14799;SDS011;7491;57.750;11.970;2023-11-19T02:10:47;1.88;;;1.50;;
14799;SDS011;7491;57.750;11.970;2023-11-19T02:13:13;2.08;;;1.80;;
14799;SDS011;7491;57.750;11.970;2023-11-19T02:15:41;1.67;;;1.50;;
14799;SDS011;7491;57.750;11.970;2023-11-19T02:18:21;2.38;;;1.48;;
14799;SDS011;7491;57.750;11.970;2023-11-19T02:20:49;3.55;;;1.58;;
14799;SDS011;7491;57.750;11.970;2023-11-19T02:23:16;2.13;;;1.63;;
14799;SDS011;7491;57.750;11.970;2023-11-19T02:25:47;1.45;;;1.35;;
14799;SDS011;7491;57.750;11.970;2023-11-19T02:28:27;2.15;;;1.52;;
14799;SDS011;7491;57.750;11.970;2023-11-19T02:30:54;1.80;;;1.50;;
14799;SDS011;7491;57.750;11.970;2023-11-19T02:33:20;1.90;;;1.70;;
14799;SDS011;7491;57.750;11.970;2023-11-19T02:35:48;3.03;;;1.80;;
14799;SDS011;7491;57.750;11.970;2023-11-19T02:38:14;1.63;;;1.52;;
14799;SDS011;7491;57.750;11.970;2023-11-19T02:40:41;2.85;;;1.77;;
14799;SDS011;7491;57.750;11.970;2023-11-19T02:43:08;1.52;;;1.42;;
14799;SDS011;7491;57.750;11.970;2023-11-19T02:45:36;1.25;;;1.13;;
14799;SDS011;7491;57.750;11.970;2023-11-19T02:48:03;1.55;;;1.45;;
14799;SDS011;7491;57.750;11.970;2023-11-19T02:50:31;1.58;;;1.48;;
14799;SDS011;7491;57.750;11.970;2023-11-19T02:52:58;1.50;;;1.40;;
14799;SDS011;7491;57.750;11.970;2023-11-19T02:55:26;2.63;;;1.73;;
14799;SDS011;7491;57.750;11.970;2023-11-19T02:57:55;1.45;;;1.27;;
14799;SDS011;7491;57.750;11.970;2023-11-19T03:00:24;1.80;;;1.45;;
14799;SDS011;7491;57.750;11.970;2023-11-19T03:02:58;1.60;;;1.50;;
14799;SDS011;7491;57.750;11.970;2023-11-19T03:05:34;1.60;;;1.30;;
14799;SDS011;7491;57.750;11.970;2023-11-19T03:08:01;2.05;;;1.08;;
14799;SDS011;7491;57.750;11.970;2023-11-19T03:10:28;1.65;;;1.50;;
14799;SDS011;7491;57.750;11.970;2023-11-19T03:12:55;2.13;;;1.27;;
14799;SDS011;7491;57.750;11.970;2023-11-19T03:15:22;2.40;;;1.90;;
14799;SDS011;7491;57.750;11.970;2023-11-19T03:17:48;0.90;;;0.90;;
14799;SDS011;7491;57.750;11.970;2023-11-19T03:20:17;1.75;;;1.65;;
14799;SDS011;7491;57.750;11.970;2023-11-19T03:22:43;2.65;;;2.10;;
14799;SDS011;7491;57.750;11.970;2023-11-19T03:25:11;1.85;;;1.73;;
14799;SDS011;7491;57.750;11.970;2023-11-19T03:27:38;1.75;;;1.48;;
14799;SDS011;7491;57.750;11.970;2023-11-19T03:30:07;2.00;;;1.60;;
14799;SDS011;7491;57.750;11.970;2023-11-19T03:32:35;2.10;;;1.38;;
14799;SDS011;7491;57.750;11.970;2023-11-19T03:35:02;2.38;;;1.58;;
14799;SDS011;7491;57.750;11.970;2023-11-19T03:37:31;1.35;;;1.17;;
14799;SDS011;7491;57.750;11.970;2023-11-19T03:39:58;2.67;;;1.70;;
14799;SDS011;7491;57.750;11.970;2023-11-19T03:42:25;1.75;;;1.33;;
14799;SDS011;7491;57.750;11.970;2023-11-19T03:44:52;1.08;;;0.98;;
14799;SDS011;7491;57.750;11.970;2023-11-19T03:47:19;2.00;;;1.52;;
14799;SDS011;7491;57.750;11.970;2023-11-19T03:49:47;1.90;;;1.55;;
14799;SDS011;7491;57.750;11.970;2023-11-19T03:52:15;2.30;;;1.83;;
14799;SDS011;7491;57.750;11.970;2023-11-19T03:54:43;1.40;;;1.30;;
14799;SDS011;7491;57.750;11.970;2023-11-19T03:57:10;1.92;;;1.48;;
14799;SDS011;7491;57.750;11.970;2023-11-19T03:59:37;1.65;;;1.38;;
14799;SDS011;7491;57.750;11.970;2023-11-19T04:02:04;2.33;;;1.20;;
14799;SDS011;7491;57.750;11.970;2023-11-19T04:04:31;2.70;;;1.45;;
14799;SDS011;7491;57.750;11.970;2023-11-19T04:06:58;1.67;;;1.40;;
14799;SDS011;7491;57.750;11.970;2023-11-19T04:09:26;2.25;;;1.50;;
14799;SDS011;7491;57.750;11.970;2023-11-19T04:11:54;2.78;;;1.50;;
14799;SDS011;7491;57.750;11.970;2023-11-19T04:14:21;3.33;;;1.33;;
14799;SDS011;7491;57.750;11.970;2023-11-19T04:16:47;2.10;;;1.30;;
14799;SDS011;7491;57.750;11.970;2023-11-19T04:19:14;2.80;;;1.77;;
14799;SDS011;7491;57.750;11.970;2023-11-19T04:21:41;1.58;;;1.25;;
14799;SDS011;7491;57.750;11.970;2023-11-19T04:24:08;4.53;;;1.55;;
14799;SDS011;7491;57.750;11.970;2023-11-19T04:26:39;1.63;;;1.45;;
14799;SDS011;7491;57.750;11.970;2023-11-19T04:29:08;1.83;;;1.27;;
14799;SDS011;7491;57.750;11.970;2023-11-19T04:31:36;1.55;;;1.38;;
14799;SDS011;7491;57.750;11.970;2023-11-19T04:34:03;2.20;;;1.55;;
14799;SDS011;7491;57.750;11.970;2023-11-19T04:36:29;1.65;;;1.45;;
14799;SDS011;7491;57.750;11.970;2023-11-19T04:38:56;2.58;;;1.75;;
14799;SDS011;7491;57.750;11.970;2023-11-19T04:41:24;1.42;;;1.33;;
14799;SDS011;7491;57.750;11.970;2023-11-19T04:43:52;2.17;;;1.50;;
14799;SDS011;7491;57.750;11.970;2023-11-19T04:46:20;2.28;;;2.08;;
14799;SDS011;7491;57.750;11.970;2023-11-19T04:48:48;1.85;;;1.75;;
14799;SDS011;7491;57.750;11.970;2023-11-19T04:51:15;1.88;;;1.67;;
14799;SDS011;7491;57.750;11.970;2023-11-19T04:53:42;1.98;;;1.60;;
14799;SDS011;7491;57.750;11.970;2023-11-19T04:56:09;1.80;;;1.70;;
14799;SDS011;7491;57.750;11.970;2023-11-19T04:58:36;1.90;;;1.35;;
14799;SDS011;7491;57.750;11.970;2023-11-19T05:01:03;1.83;;;1.70;;
14799;SDS011;7491;57.750;11.970;2023-11-19T05:03:31;1.77;;;1.35;;
14799;SDS011;7491;57.750;11.970;2023-11-19T05:05:58;3.15;;;1.40;;
14799;SDS011;7491;57.750;11.970;2023-11-19T05:08:25;2.28;;;1.70;;
14799;SDS011;7491;57.750;11.970;2023-11-19T05:10:52;1.92;;;1.40;;
14799;SDS011;7491;57.750;11.970;2023-11-19T05:13:18;2.05;;;1.45;;
14799;SDS011;7491;57.750;11.970;2023-11-19T05:15:45;1.88;;;1.70;;
14799;SDS011;7491;57.750;11.970;2023-11-19T05:18:12;2.35;;;1.73;;
14799;SDS011;7491;57.750;11.970;2023-11-19T05:20:40;1.85;;;1.70;;
14799;SDS011;7491;57.750;11.970;2023-11-19T05:23:07;2.03;;;1.58;;
14799;SDS011;7491;57.750;11.970;2023-11-19T05:25:33;2.42;;;1.55;;
14799;SDS011;7491;57.750;11.970;2023-11-19T05:28:00;1.33;;;1.00;;
14799;SDS011;7491;57.750;11.970;2023-11-19T05:30:27;1.58;;;1.42;;
14799;SDS011;7491;57.750;11.970;2023-11-19T05:32:53;2.42;;;1.65;;
14799;SDS011;7491;57.750;11.970;2023-11-19T05:35:20;2.63;;;1.33;;
14799;SDS011;7491;57.750;11.970;2023-11-19T05:37:48;2.47;;;1.67;;
14799;SDS011;7491;57.750;11.970;2023-11-19T05:40:15;2.78;;;1.80;;
14799;SDS011;7491;57.750;11.970;2023-11-19T05:42:42;3.33;;;2.10;;
14799;SDS011;7491;57.750;11.970;2023-11-19T05:45:11;1.85;;;1.65;;
14799;SDS011;7491;57.750;11.970;2023-11-19T05:47:38;2.55;;;1.60;;
14799;SDS011;7491;57.750;11.970;2023-11-19T05:50:05;1.63;;;1.13;;
14799;SDS011;7491;57.750;11.970;2023-11-19T05:52:33;1.55;;;1.45;;
14799;SDS011;7491;57.750;11.970;2023-11-19T05:55:01;1.55;;;1.38;;
14799;SDS011;7491;57.750;11.970;2023-11-19T05:57:29;2.10;;;1.80;;
14799;SDS011;7491;57.750;11.970;2023-11-19T05:59:56;1.38;;;1.27;;
14799;SDS011;7491;57.750;11.970;2023-11-19T06:02:24;1.67;;;1.38;;
14799;SDS011;7491;57.750;11.970;2023-11-19T06:04:52;1.45;;;1.35;;
14799;SDS011;7491;57.750;11.970;2023-11-19T06:07:19;4.30;;;2.38;;
14799;SDS011;7491;57.750;11.970;2023-11-19T06:09:45;1.70;;;1.60;;
14799;SDS011;7491;57.750;11.970;2023-11-19T06:12:13;1.55;;;1.45;;
14799;SDS011;7491;57.750;11.970;2023-11-19T06:14:40;1.27;;;1.17;;
14799;SDS011;7491;57.750;11.970;2023-11-19T06:17:07;1.63;;;1.52;;
14799;SDS011;7491;57.750;11.970;2023-11-19T06:19:36;1.77;;;1.67;;
14799;SDS011;7491;57.750;11.970;2023-11-19T06:22:03;2.53;;;1.50;;
14799;SDS011;7491;57.750;11.970;2023-11-19T06:24:29;2.80;;;2.00;;
14799;SDS011;7491;57.750;11.970;2023-11-19T06:26:56;1.50;;;1.40;;
14799;SDS011;7491;57.750;11.970;2023-11-19T06:29:25;1.48;;;1.38;;
14799;SDS011;7491;57.750;11.970;2023-11-19T06:31:51;1.52;;;1.35;;
14799;SDS011;7491;57.750;11.970;2023-11-19T06:34:18;1.63;;;1.48;;
14799;SDS011;7491;57.750;11.970;2023-11-19T06:36:45;1.73;;;1.40;;
14799;SDS011;7491;57.750;11.970;2023-11-19T06:39:13;2.33;;;1.50;;
14799;SDS011;7491;57.750;11.970;2023-11-19T06:41:44;1.75;;;1.63;;
14799;SDS011;7491;57.750;11.970;2023-11-19T06:44:11;2.60;;;1.65;;
14799;SDS011;7491;57.750;11.970;2023-11-19T06:46:39;2.10;;;1.98;;
14799;SDS011;7491;57.750;11.970;2023-11-19T06:49:06;1.90;;;1.70;;
14799;SDS011;7491;57.750;11.970;2023-11-19T06:51:33;1.27;;;1.17;;
14799;SDS011;7491;57.750;11.970;2023-11-19T06:54:00;3.13;;;1.42;;
14799;SDS011;7491;57.750;11.970;2023-11-19T06:56:27;1.50;;;1.05;;
14799;SDS011;7491;57.750;11.970;2023-11-19T06:58:53;1.58;;;1.48;;
14799;SDS011;7491;57.750;11.970;2023-11-19T07:01:20;1.25;;;1.15;;
14799;SDS011;7491;57.750;11.970;2023-11-19T07:03:49;1.70;;;1.60;;
14799;SDS011;7491;57.750;11.970;2023-11-19T07:06:16;1.65;;;1.55;;
14799;SDS011;7491;57.750;11.970;2023-11-19T07:08:43;1.48;;;0.70;;
14799;SDS011;7491;57.750;11.970;2023-11-19T07:11:10;1.50;;;1.33;;
14799;SDS011;7491;57.750;11.970;2023-11-19T07:13:39;1.52;;;1.27;;
14799;SDS011;7491;57.750;11.970;2023-11-19T07:16:06;2.33;;;1.52;;
14799;SDS011;7491;57.750;11.970;2023-11-19T07:18:35;1.48;;;1.38;;
14799;SDS011;7491;57.750;11.970;2023-11-19T07:21:03;2.60;;;1.73;;
14799;SDS011;7491;57.750;11.970;2023-11-19T07:23:30;1.65;;;1.40;;
14799;SDS011;7491;57.750;11.970;2023-11-19T07:25:58;3.33;;;1.70;;
14799;SDS011;7491;57.750;11.970;2023-11-19T07:28:24;1.58;;;1.38;;
14799;SDS011;7491;57.750;11.970;2023-11-19T07:30:53;1.80;;;1.50;;
14799;SDS011;7491;57.750;11.970;2023-11-19T07:33:21;2.08;;;1.60;;
14799;SDS011;7491;57.750;11.970;2023-11-19T07:35:47;2.00;;;1.80;;
14799;SDS011;7491;57.750;11.970;2023-11-19T07:38:15;2.13;;;1.88;;
14799;SDS011;7491;57.750;11.970;2023-11-19T07:40:43;1.20;;;1.10;;
14799;SDS011;7491;57.750;11.970;2023-11-19T07:43:10;4.00;;;1.90;;
14799;SDS011;7491;57.750;11.970;2023-11-19T07:45:36;1.52;;;1.05;;
14799;SDS011;7491;57.750;11.970;2023-11-19T07:48:03;1.90;;;1.33;;
14799;SDS011;7491;57.750;11.970;2023-11-19T07:50:31;3.83;;;1.40;;
14799;SDS011;7491;57.750;11.970;2023-11-19T07:52:58;1.58;;;1.45;;
14799;SDS011;7491;57.750;11.970;2023-11-19T07:55:26;1.80;;;1.65;;
14799;SDS011;7491;57.750;11.970;2023-11-19T07:57:53;2.60;;;1.83;;
14799;SDS011;7491;57.750;11.970;2023-11-19T08:00:20;3.83;;;2.65;;
14799;SDS011;7491;57.750;11.970;2023-11-19T08:02:47;2.00;;;1.80;;
14799;SDS011;7491;57.750;11.970;2023-11-19T08:05:14;2.90;;;1.77;;
14799;SDS011;7491;57.750;11.970;2023-11-19T08:07:40;2.35;;;1.83;;
14799;SDS011;7491;57.750;11.970;2023-11-19T08:10:07;3.35;;;1.38;;
14799;SDS011;7491;57.750;11.970;2023-11-19T08:12:37;4.40;;;1.77;;
14799;SDS011;7491;57.750;11.970;2023-11-19T08:15:04;1.85;;;1.75;;
14799;SDS011;7491;57.750;11.970;2023-11-19T08:17:32;3.10;;;2.40;;
14799;SDS011;7491;57.750;11.970;2023-11-19T08:19:58;2.72;;;1.77;;
14799;SDS011;7491;57.750;11.970;2023-11-19T08:22:26;3.45;;;2.03;;
14799;SDS011;7491;57.750;11.970;2023-11-19T08:24:52;1.95;;;1.58;;
14799;SDS011;7491;57.750;11.970;2023-11-19T08:27:19;1.48;;;1.13;;
14799;SDS011;7491;57.750;11.970;2023-11-19T08:29:53;2.22;;;1.80;;
14799;SDS011;7491;57.750;11.970;2023-11-19T08:32:20;2.88;;;1.90;;
14799;SDS011;7491;57.750;11.970;2023-11-19T08:34:47;2.97;;;1.55;;
14799;SDS011;7491;57.750;11.970;2023-11-19T08:37:14;2.03;;;1.60;;
14799;SDS011;7491;57.750;11.970;2023-11-19T08:39:43;4.22;;;2.10;;
14799;SDS011;7491;57.750;11.970;2023-11-19T08:42:10;2.10;;;1.60;;
14799;SDS011;7491;57.750;11.970;2023-11-19T08:44:36;1.45;;;1.35;;
14799;SDS011;7491;57.750;11.970;2023-11-19T08:47:04;2.00;;;1.65;;
14799;SDS011;7491;57.750;11.970;2023-11-19T08:49:31;3.60;;;1.90;;
14799;SDS011;7491;57.750;11.970;2023-11-19T08:51:58;2.95;;;2.20;;
14799;SDS011;7491;57.750;11.970;2023-11-19T08:54:24;3.13;;;2.30;;
14799;SDS011;7491;57.750;11.970;2023-11-19T08:56:51;1.75;;;1.30;;
14799;SDS011;7491;57.750;11.970;2023-11-19T08:59:18;3.35;;;1.55;;
14799;SDS011;7491;57.750;11.970;2023-11-19T09:01:45;2.20;;;1.80;;
14799;SDS011;7491;57.750;11.970;2023-11-19T09:04:13;4.03;;;2.00;;
14799;SDS011;7491;57.750;11.970;2023-11-19T09:06:41;2.03;;;1.80;;
14799;SDS011;7491;57.750;11.970;2023-11-19T09:09:07;3.83;;;2.00;;
14799;SDS011;7491;57.750;11.970;2023-11-19T09:11:35;2.60;;;2.15;;
14799;SDS011;7491;57.750;11.970;2023-11-19T09:14:02;3.65;;;1.90;;
14799;SDS011;7491;57.750;11.970;2023-11-19T09:16:29;2.08;;;1.67;;
14799;SDS011;7491;57.750;11.970;2023-11-19T09:18:56;3.15;;;2.13;;
14799;SDS011;7491;57.750;11.970;2023-11-19T09:21:27;1.90;;;1.70;;
14799;SDS011;7491;57.750;11.970;2023-11-19T09:23:54;2.55;;;2.08;;
14799;SDS011;7491;57.750;11.970;2023-11-19T09:26:21;2.08;;;1.88;;
14799;SDS011;7491;57.750;11.970;2023-11-19T09:28:48;2.83;;;2.10;;
14799;SDS011;7491;57.750;11.970;2023-11-19T09:31:14;3.70;;;2.40;;
14799;SDS011;7491;57.750;11.970;2023-11-19T09:33:49;2.17;;;1.98;;
14799;SDS011;7491;57.750;11.970;2023-11-19T09:36:16;3.25;;;2.63;;
14799;SDS011;7491;57.750;11.970;2023-11-19T09:38:45;3.47;;;1.88;;
14799;SDS011;7491;57.750;11.970;2023-11-19T09:41:12;2.17;;;1.63;;
14799;SDS011;7491;57.750;11.970;2023-11-19T09:43:39;2.25;;;1.95;;
14799;SDS011;7491;57.750;11.970;2023-11-19T09:46:06;2.35;;;1.75;;
14799;SDS011;7491;57.750;11.970;2023-11-19T09:48:37;2.30;;;2.05;;
14799;SDS011;7491;57.750;11.970;2023-11-19T09:51:05;2.75;;;2.20;;
14799;SDS011;7491;57.750;11.970;2023-11-19T09:53:33;3.22;;;2.25;;
14799;SDS011;7491;57.750;11.970;2023-11-19T09:56:02;4.25;;;2.53;;
14799;SDS011;7491;57.750;11.970;2023-11-19T09:58:30;2.95;;;2.20;;
14799;SDS011;7491;57.750;11.970;2023-11-19T10:00:58;3.53;;;3.22;;
14799;SDS011;7491;57.750;11.970;2023-11-19T10:03:25;3.63;;;2.70;;
14799;SDS011;7491;57.750;11.970;2023-11-19T10:05:53;4.68;;;2.72;;
14799;SDS011;7491;57.750;11.970;2023-11-19T10:08:21;3.00;;;2.22;;
14799;SDS011;7491;57.750;11.970;2023-11-19T10:10:48;2.50;;;2.20;;
14799;SDS011;7491;57.750;11.970;2023-11-19T10:13:18;3.78;;;3.08;;
14799;SDS011;7491;57.750;11.970;2023-11-19T10:15:45;2.67;;;1.88;;
14799;SDS011;7491;57.750;11.970;2023-11-19T10:18:14;3.63;;;2.50;;
14799;SDS011;7491;57.750;11.970;2023-11-19T10:20:41;4.95;;;2.65;;
14799;SDS011;7491;57.750;11.970;2023-11-19T10:23:08;2.22;;;1.52;;
14799;SDS011;7491;57.750;11.970;2023-11-19T10:25:35;4.10;;;3.30;;
14799;SDS011;7491;57.750;11.970;2023-11-19T10:28:02;3.50;;;2.70;;
14799;SDS011;7491;57.750;11.970;2023-11-19T10:30:30;3.42;;;2.67;;
14799;SDS011;7491;57.750;11.970;2023-11-19T10:33:02;3.53;;;2.47;;
14799;SDS011;7491;57.750;11.970;2023-11-19T10:35:30;3.50;;;2.92;;
14799;SDS011;7491;57.750;11.970;2023-11-19T10:37:58;2.63;;;2.42;;
14799;SDS011;7491;57.750;11.970;2023-11-19T10:40:37;3.15;;;1.48;;
14799;SDS011;7491;57.750;11.970;2023-11-19T10:43:05;4.68;;;2.30;;
14799;SDS011;7491;57.750;11.970;2023-11-19T10:45:34;2.67;;;1.95;;
14799;SDS011;7491;57.750;11.970;2023-11-19T10:48:01;3.13;;;2.65;;
14799;SDS011;7491;57.750;11.970;2023-11-19T10:50:31;5.75;;;2.70;;
14799;SDS011;7491;57.750;11.970;2023-11-19T10:52:59;3.10;;;2.35;;
14799;SDS011;7491;57.750;11.970;2023-11-19T10:55:33;3.53;;;3.05;;
14799;SDS011;7491;57.750;11.970;2023-11-19T10:58:01;2.60;;;2.25;;
14799;SDS011;7491;57.750;11.970;2023-11-19T11:00:29;7.53;;;3.55;;
14799;SDS011;7491;57.750;11.970;2023-11-19T11:03:01;3.00;;;2.53;;
14799;SDS011;7491;57.750;11.970;2023-11-19T11:05:32;3.92;;;2.92;;
14799;SDS011;7491;57.750;11.970;2023-11-19T11:08:00;3.65;;;2.78;;
14799;SDS011;7491;57.750;11.970;2023-11-19T11:10:27;1.50;;;1.40;;
14799;SDS011;7491;57.750;11.970;2023-11-19T11:12:58;3.70;;;3.30;;
14799;SDS011;7491;57.750;11.970;2023-11-19T11:15:27;3.42;;;2.88;;
14799;SDS011;7491;57.750;11.970;2023-11-19T11:17:56;4.68;;;2.90;;
14799;SDS011;7491;57.750;11.970;2023-11-19T11:20:28;2.88;;;2.35;;
14799;SDS011;7491;57.750;11.970;2023-11-19T11:23:00;2.90;;;2.60;;
14799;SDS011;7491;57.750;11.970;2023-11-19T11:25:53;3.15;;;2.83;;
14799;SDS011;7491;57.750;11.970;2023-11-19T11:28:33;4.60;;;3.22;;
14799;SDS011;7491;57.750;11.970;2023-11-19T11:31:23;4.05;;;2.90;;
14799;SDS011;7491;57.750;11.970;2023-11-19T11:34:15;4.38;;;3.00;;
14799;SDS011;7491;57.750;11.970;2023-11-19T11:36:57;5.13;;;3.75;;
14799;SDS011;7491;57.750;11.970;2023-11-19T11:39:36;24.25;;;11.65;;
14799;SDS011;7491;57.750;11.970;2023-11-19T11:42:30;5.38;;;4.10;;
14799;SDS011;7491;57.750;11.970;2023-11-19T11:44:58;6.00;;;3.85;;
14799;SDS011;7491;57.750;11.970;2023-11-19T11:47:25;6.40;;;3.50;;
14799;SDS011;7491;57.750;11.970;2023-11-19T11:49:51;6.55;;;4.75;;
14799;SDS011;7491;57.750;11.970;2023-11-19T11:52:21;5.95;;;4.35;;
14799;SDS011;7491;57.750;11.970;2023-11-19T11:54:47;4.35;;;3.03;;
14799;SDS011;7491;57.750;11.970;2023-11-19T11:57:13;2.30;;;2.08;;
14799;SDS011;7491;57.750;11.970;2023-11-19T11:59:48;3.22;;;2.53;;
14799;SDS011;7491;57.750;11.970;2023-11-19T12:02:15;4.18;;;2.85;;
14799;SDS011;7491;57.750;11.970;2023-11-19T12:04:46;5.60;;;3.53;;
14799;SDS011;7491;57.750;11.970;2023-11-19T12:07:17;6.10;;;3.33;;
14799;SDS011;7491;57.750;11.970;2023-11-19T12:09:50;4.15;;;3.28;;
14799;SDS011;7491;57.750;11.970;2023-11-19T12:12:23;4.22;;;2.97;;
14799;SDS011;7491;57.750;11.970;2023-11-19T12:15:00;2.80;;;2.47;;
14799;SDS011;7491;57.750;11.970;2023-11-19T12:17:42;3.47;;;3.00;;
14799;SDS011;7491;57.750;11.970;2023-11-19T12:20:14;7.72;;;3.08;;
14799;SDS011;7491;57.750;11.970;2023-11-19T12:22:42;3.10;;;2.80;;
14799;SDS011;7491;57.750;11.970;2023-11-19T12:25:12;4.07;;;3.15;;
14799;SDS011;7491;57.750;11.970;2023-11-19T12:27:39;4.20;;;3.35;;
14799;SDS011;7491;57.750;11.970;2023-11-19T12:30:08;5.22;;;3.20;;
14799;SDS011;7491;57.750;11.970;2023-11-19T12:32:43;2.97;;;2.65;;
14799;SDS011;7491;57.750;11.970;2023-11-19T12:35:11;3.67;;;3.20;;
14799;SDS011;7491;57.750;11.970;2023-11-19T12:37:41;4.78;;;3.17;;
14799;SDS011;7491;57.750;11.970;2023-11-19T12:40:16;5.72;;;3.53;;
14799;SDS011;7491;57.750;11.970;2023-11-19T12:42:44;4.93;;;3.47;;
14799;SDS011;7491;57.750;11.970;2023-11-19T12:45:11;7.90;;;4.28;;
14799;SDS011;7491;57.750;11.970;2023-11-19T12:47:38;4.18;;;3.58;;
14799;SDS011;7491;57.750;11.970;2023-11-19T12:50:06;5.18;;;4.32;;
14799;SDS011;7491;57.750;11.970;2023-11-19T12:52:36;5.82;;;4.18;;
14799;SDS011;7491;57.750;11.970;2023-11-19T12:55:03;16.83;;;9.90;;
14799;SDS011;7491;57.750;11.970;2023-11-19T12:57:40;6.85;;;4.47;;
14799;SDS011;7491;57.750;11.970;2023-11-19T13:00:17;12.63;;;7.30;;
14799;SDS011;7491;57.750;11.970;2023-11-19T13:02:46;7.88;;;5.35;;
14799;SDS011;7491;57.750;11.970;2023-11-19T13:05:20;6.93;;;4.57;;
14799;SDS011;7491;57.750;11.970;2023-11-19T13:08:03;5.43;;;3.60;;
14799;SDS011;7491;57.750;11.970;2023-11-19T13:10:32;8.05;;;5.50;;
14799;SDS011;7491;57.750;11.970;2023-11-19T13:13:01;6.45;;;4.57;;
14799;SDS011;7491;57.750;11.970;2023-11-19T13:15:32;8.48;;;3.97;;
14799;SDS011;7491;57.750;11.970;2023-11-19T13:17:59;4.88;;;4.38;;
14799;SDS011;7491;57.750;11.970;2023-11-19T13:20:26;8.32;;;5.00;;
14799;SDS011;7491;57.750;11.970;2023-11-19T13:22:54;4.72;;;3.80;;
14799;SDS011;7491;57.750;11.970;2023-11-19T13:25:21;3.88;;;3.47;;
14799;SDS011;7491;57.750;11.970;2023-11-19T13:27:48;6.13;;;3.15;;
14799;SDS011;7491;57.750;11.970;2023-11-19T13:30:16;3.20;;;2.90;;
14799;SDS011;7491;57.750;11.970;2023-11-19T13:32:43;3.88;;;3.08;;
14799;SDS011;7491;57.750;11.970;2023-11-19T13:35:11;5.68;;;3.63;;
14799;SDS011;7491;57.750;11.970;2023-11-19T13:37:37;4.38;;;2.97;;
14799;SDS011;7491;57.750;11.970;2023-11-19T13:40:05;11.95;;;3.42;;
14799;SDS011;7491;57.750;11.970;2023-11-19T13:42:34;3.95;;;3.30;;
14799;SDS011;7491;57.750;11.970;2023-11-19T13:45:02;4.70;;;3.38;;
14799;SDS011;7491;57.750;11.970;2023-11-19T13:47:30;4.10;;;3.30;;
14799;SDS011;7491;57.750;11.970;2023-11-19T13:49:57;3.95;;;2.88;;
14799;SDS011;7491;57.750;11.970;2023-11-19T13:52:24;3.63;;;2.78;;
14799;SDS011;7491;57.750;11.970;2023-11-19T13:54:51;3.33;;;2.40;;
14799;SDS011;7491;57.750;11.970;2023-11-19T13:57:17;2.85;;;2.25;;
14799;SDS011;7491;57.750;11.970;2023-11-19T13:59:44;3.85;;;2.97;;
14799;SDS011;7491;57.750;11.970;2023-11-19T14:02:11;2.33;;;1.85;;
14799;SDS011;7491;57.750;11.970;2023-11-19T14:04:39;4.90;;;3.30;;
14799;SDS011;7491;57.750;11.970;2023-11-19T14:07:06;9.32;;;7.00;;
14799;SDS011;7491;57.750;11.970;2023-11-19T14:09:33;8.02;;;4.43;;
14799;SDS011;7491;57.750;11.970;2023-11-19T14:12:03;6.00;;;5.13;;
14799;SDS011;7491;57.750;11.970;2023-11-19T14:14:30;9.55;;;6.43;;
14799;SDS011;7491;57.750;11.970;2023-11-19T14:16:57;10.73;;;8.18;;
14799;SDS011;7491;57.750;11.970;2023-11-19T14:19:23;14.43;;;8.65;;
14799;SDS011;7491;57.750;11.970;2023-11-19T14:24:50;4.55;;;3.28;;
14799;SDS011;7491;57.750;11.970;2023-11-19T14:27:24;4.28;;;2.80;;
14799;SDS011;7491;57.750;11.970;2023-11-19T14:29:56;3.85;;;2.47;;
14799;SDS011;7491;57.750;11.970;2023-11-19T14:32:23;4.38;;;2.50;;
14799;SDS011;7491;57.750;11.970;2023-11-19T14:34:49;4.18;;;2.80;;
14799;SDS011;7491;57.750;11.970;2023-11-19T14:37:17;3.17;;;2.85;;
14799;SDS011;7491;57.750;11.970;2023-11-19T14:39:44;9.50;;;3.22;;
14799;SDS011;7491;57.750;11.970;2023-11-19T14:42:11;4.80;;;3.20;;
14799;SDS011;7491;57.750;11.970;2023-11-19T14:44:38;7.03;;;5.72;;
14799;SDS011;7491;57.750;11.970;2023-11-19T14:47:05;4.28;;;3.45;;
14799;SDS011;7491;57.750;11.970;2023-11-19T14:49:34;11.57;;;6.35;;
14799;SDS011;7491;57.750;11.970;2023-11-19T14:52:02;5.25;;;2.72;;
14799;SDS011;7491;57.750;11.970;2023-11-19T14:54:30;10.50;;;4.53;;
14799;SDS011;7491;57.750;11.970;2023-11-19T14:56:57;3.20;;;2.40;;